Time;durP1;ratioP1;P1;durP2;ratioP2;P2;SDS_P1;SDS_P2;PMS_P1;PMS_P2;Temp;Humidity;BMP_temperature;BMP_pressure;BME280_temperature;BME280_humidity;BME280_pressure;Samples;Min_cycle;Max_cycle;Signal;HPM_P1;HPM_P2
2022/07/19 00:00:25;;;;;;;8.45;2.38;;;;;;;20.33;65.46;100056.63;5048107;28;20028;-84
2022/07/19 00:02:52;;;;;;;7.82;2.70;;;;;;;20.36;65.71;100063.41;5047005;28;20128;-83
2022/07/19 00:05:18;;;;;;;4.10;2.28;;;;;;;20.37;65.79;100061.56;5047611;28;20056;-84
2022/07/19 00:07:45;;;;;;;8.88;2.33;;;;;;;20.45;65.53;100069.31;5045751;28;20036;-84
2022/07/19 00:10:14;;;;;;;7.05;2.70;;;;;;;20.54;65.32;100056.44;5049044;28;20068;-83
2022/07/19 00:12:40;;;;;;;4.97;2.70;;;;;;;20.56;65.35;100063.22;5051482;28;20036;-84
2022/07/19 00:15:09;;;;;;;4.43;2.58;;;;;;;20.46;65.50;100070.97;5048324;28;20031;-84
2022/07/19 00:17:39;;;;;;;4.60;2.58;;;;;;;20.30;66.17;100057.06;5058483;28;20029;-84
2022/07/19 00:20:06;;;;;;;13.13;2.80;;;;;;;20.17;66.73;100058.00;5047035;28;20033;-84
2022/07/19 00:22:32;;;;;;;10.77;2.92;;;;;;;20.11;66.99;100063.41;5047741;28;20042;-83
2022/07/19 00:24:57;;;;;;;9.10;2.70;;;;;;;20.11;67.16;100048.13;5043711;28;20055;-84
2022/07/19 00:27:23;;;;;;;21.65;2.92;;;;;;;20.10;67.24;100043.78;5047443;28;20465;-83
2022/07/19 00:29:49;;;;;;;7.35;3.00;;;;;;;20.07;67.54;100041.53;5050446;28;20021;-84
2022/07/19 00:32:15;;;;;;;5.55;2.67;;;;;;;20.06;67.15;100037.22;5049800;28;20152;-84
2022/07/19 00:34:41;;;;;;;3.92;2.70;;;;;;;20.08;67.09;100033.28;5032122;28;20051;-84
2022/07/19 00:37:07;;;;;;;5.30;2.25;;;;;;;20.12;67.11;100020.25;5050670;28;20071;-84
2022/07/19 00:39:33;;;;;;;8.05;3.22;;;;;;;20.06;66.98;100019.28;5048223;28;20119;-84
2022/07/19 00:41:58;;;;;;;8.27;2.67;;;;;;;19.98;67.40;100024.03;5048278;28;20094;-84
2022/07/19 00:44:24;;;;;;;10.88;3.72;;;;;;;19.93;67.58;100017.47;5048829;28;20041;-84
2022/07/19 00:46:51;;;;;;;10.43;3.42;;;;;;;19.93;67.77;100024.69;5044898;28;20041;-83
2022/07/19 00:49:17;;;;;;;5.30;2.90;;;;;;;19.92;67.79;100015.00;5050728;28;20025;-77
2022/07/19 00:51:43;;;;;;;14.15;3.50;;;;;;;19.90;67.87;100028.63;5045442;28;20402;-77
2022/07/19 00:54:12;;;;;;;8.13;2.80;;;;;;;19.84;67.97;100019.59;5046472;28;20140;-84
2022/07/19 00:56:40;;;;;;;6.10;3.05;;;;;;;19.79;68.08;100019.44;5041333;28;20481;-84
2022/07/19 00:59:08;;;;;;;9.38;2.83;;;;;;;19.74;68.28;100013.88;5045442;28;20033;-84
2022/07/19 01:01:33;;;;;;;4.20;2.83;;;;;;;19.68;68.55;100014.75;5050533;28;20065;-84
2022/07/19 01:04:00;;;;;;;6.97;3.28;;;;;;;19.67;68.52;100005.06;5046331;28;20072;-84
2022/07/19 01:06:26;;;;;;;6.38;2.92;;;;;;;19.66;68.16;100011.47;5050310;28;20496;-84
2022/07/19 01:08:52;;;;;;;5.28;2.70;;;;;;;19.71;68.27;100014.31;5050137;28;20385;-77
2022/07/19 01:11:18;;;;;;;7.30;3.22;;;;;;;19.72;68.03;100013.28;5049397;28;20037;-77
2022/07/19 01:13:44;;;;;;;4.60;2.63;;;;;;;19.67;68.18;100018.47;5051897;28;20170;-84
2022/07/19 01:16:10;;;;;;;8.07;2.60;;;;;;;19.56;68.36;100006.56;5053172;28;20114;-84
2022/07/19 01:18:36;;;;;;;7.75;2.72;;;;;;;19.46;68.74;100007.03;5052402;28;20436;-84
2022/07/19 01:21:04;;;;;;;7.32;3.33;;;;;;;19.40;68.95;100003.34;5045664;28;20029;-84
2022/07/19 01:23:30;;;;;;;7.97;2.80;;;;;;;19.24;69.45;100007.34;5050116;28;20029;-84
2022/07/19 01:25:56;;;;;;;7.18;2.83;;;;;;;19.13;69.98;99998.09;5048726;28;20037;-84
2022/07/19 01:28:21;;;;;;;5.72;2.80;;;;;;;19.13;70.02;100003.47;5033305;28;20505;-84
2022/07/19 01:30:47;;;;;;;3.83;2.58;;;;;;;19.12;69.77;99999.16;5042398;28;20029;-84
2022/07/19 01:33:13;;;;;;;5.05;2.80;;;;;;;19.09;69.84;99994.22;5080958;28;20182;-84
2022/07/19 01:35:39;;;;;;;8.70;2.70;;;;;;;19.08;70.07;99992.53;5048250;28;20043;-84
2022/07/19 01:38:05;;;;;;;5.32;2.90;;;;;;;19.07;69.86;99990.91;5052597;28;20039;-84
2022/07/19 01:40:33;;;;;;;6.10;2.97;;;;;;;18.95;70.31;99996.91;5052839;28;20033;-84
2022/07/19 01:42:58;;;;;;;6.82;3.30;;;;;;;18.80;70.71;99994.50;5032045;28;20037;-83
2022/07/19 01:45:24;;;;;;;4.82;2.90;;;;;;;18.67;71.25;99997.19;5033010;28;20041;-84
2022/07/19 01:47:50;;;;;;;7.95;2.78;;;;;;;18.63;71.84;100002.16;5042875;28;20075;-84
2022/07/19 01:50:18;;;;;;;6.70;3.03;;;;;;;18.65;71.72;99994.72;5051861;28;20052;-84
2022/07/19 01:52:45;;;;;;;3.25;2.50;;;;;;;18.66;71.71;99993.72;5046165;28;20038;-84
2022/07/19 01:55:11;;;;;;;8.13;3.17;;;;;;;18.55;72.19;99991.66;5052681;28;20387;-84
2022/07/19 01:57:36;;;;;;;6.07;3.20;;;;;;;18.37;72.68;99989.63;5048218;28;20508;-84
2022/07/19 02:00:05;;;;;;;4.95;3.10;;;;;;;18.24;73.15;99993.94;5049707;28;20069;-84
2022/07/19 02:02:38;;;;;;;11.57;3.30;;;;;;;18.21;73.81;99991.69;5050349;28;20037;-84
2022/07/19 02:05:05;;;;;;;3.67;2.92;;;;;;;18.31;73.63;99989.44;5041959;28;20476;-76
2022/07/19 02:07:30;;;;;;;2.78;2.50;;;;;;;18.40;73.16;99991.88;5049960;28;20095;-76
2022/07/19 02:09:57;;;;;;;7.45;3.55;;;;;;;18.44;72.94;99988.56;5049629;28;20029;-84
2022/07/19 02:12:24;;;;;;;6.75;3.28;;;;;;;18.44;73.14;99983.22;5059660;28;20041;-84
2022/07/19 02:14:49;;;;;;;5.00;3.30;;;;;;;18.39;73.05;99982.22;5065456;28;20034;-84
2022/07/19 02:17:15;;;;;;;5.72;2.67;;;;;;;18.27;73.52;99968.66;5057799;28;20033;-84
2022/07/19 02:19:41;;;;;;;4.85;2.90;;;;;;;18.26;73.87;99967.81;5049502;28;20040;-84
2022/07/19 02:22:07;;;;;;;3.20;2.90;;;;;;;18.29;73.73;99964.72;5049110;28;20552;-84
2022/07/19 02:24:33;;;;;;;3.55;2.88;;;;;;;18.21;73.96;99957.75;5046632;28;20139;-77
2022/07/19 02:26:59;;;;;;;6.00;2.70;;;;;;;18.27;73.71;99957.97;5047203;28;20063;-77
2022/07/19 02:29:24;;;;;;;3.47;2.90;;;;;;;18.34;73.38;99967.63;5050017;28;20028;-84
2022/07/19 02:31:50;;;;;;;5.47;3.15;;;;;;;18.43;73.18;99962.03;5048641;28;20358;-83
2022/07/19 02:34:16;;;;;;;8.57;3.47;;;;;;;18.47;72.89;99950.69;5066908;28;20056;-84
2022/07/19 02:36:42;;;;;;;4.78;2.90;;;;;;;18.50;72.82;99954.00;5049297;28;20107;-84
2022/07/19 02:39:08;;;;;;;4.68;2.78;;;;;;;18.52;72.54;99950.06;5032578;28;20120;-84
2022/07/19 02:41:34;;;;;;;5.22;3.10;;;;;;;18.50;72.69;99945.97;5050423;28;20114;-84
2022/07/19 02:44:00;;;;;;;7.10;3.10;;;;;;;18.53;72.76;99932.16;5045937;28;20284;-84
2022/07/19 02:46:26;;;;;;;8.57;3.60;;;;;;;18.57;72.45;99928.84;5050921;28;20032;-84
2022/07/19 02:48:51;;;;;;;6.07;2.90;;;;;;;18.58;72.15;99917.13;5051052;28;20033;-84
2022/07/19 02:51:17;;;;;;;5.47;3.47;;;;;;;18.59;72.10;99924.13;5051227;28;20118;-83
2022/07/19 02:53:43;;;;;;;4.65;3.30;;;;;;;18.54;72.20;99928.47;5044150;28;20051;-83
2022/07/19 02:56:09;;;;;;;4.15;3.35;;;;;;;18.49;72.21;99917.56;5053188;28;20157;-84
2022/07/19 02:58:35;;;;;;;7.82;3.35;;;;;;;18.50;72.44;99913.84;5048165;28;20033;-84
2022/07/19 03:01:00;;;;;;;3.97;3.40;;;;;;;18.48;72.23;99908.72;5052673;28;20086;-84
2022/07/19 03:03:44;;;;;;;6.93;3.50;;;;;;;18.42;72.33;99912.22;5030546;28;20329;-84
2022/07/19 03:06:11;;;;;;;6.18;3.45;;;;;;;18.38;72.48;99911.03;5047122;28;20036;-84
2022/07/19 03:08:37;;;;;;;5.97;3.47;;;;;;;18.18;72.85;99909.19;5033056;28;20036;-84
2022/07/19 03:11:03;;;;;;;6.43;3.00;;;;;;;17.87;73.65;99914.09;5048909;28;20028;-84
2022/07/19 03:13:29;;;;;;;5.30;3.22;;;;;;;17.62;74.70;99909.38;5050208;28;20037;-84
2022/07/19 03:15:55;;;;;;;9.98;3.40;;;;;;;17.53;75.18;99911.44;5050444;28;20033;-76
2022/07/19 03:18:21;;;;;;;4.75;3.35;;;;;;;17.57;75.36;99917.19;5066340;28;20029;-76
2022/07/19 03:20:47;;;;;;;3.88;3.10;;;;;;;17.55;75.38;99917.38;5082766;28;20063;-84
2022/07/19 03:23:13;;;;;;;6.30;3.35;;;;;;;17.52;75.51;99911.66;5042447;28;20131;-84
2022/07/19 03:25:39;;;;;;;4.72;3.80;;;;;;;17.52;75.69;99901.75;5047051;28;20119;-84
2022/07/19 03:28:05;;;;;;;5.25;2.72;;;;;;;17.55;75.60;99914.72;5081984;28;20389;-84
2022/07/19 03:30:33;;;;;;;4.28;3.38;;;;;;;17.63;75.38;99911.03;5049967;28;20481;-84
2022/07/19 03:33:00;;;;;;;4.32;3.03;;;;;;;17.56;75.66;99908.38;5049505;28;20116;-84
2022/07/19 03:35:26;;;;;;;5.72;3.38;;;;;;;17.62;75.74;99901.38;5045828;28;20032;-84
2022/07/19 03:37:51;;;;;;;5.40;3.80;;;;;;;17.64;75.29;99891.31;5079023;28;20067;-84
2022/07/19 03:40:17;;;;;;;5.13;3.28;;;;;;;17.60;75.29;99885.53;5049318;28;20036;-84
2022/07/19 03:42:43;;;;;;;4.57;3.30;;;;;;;17.65;75.16;99876.91;5032227;28;20141;-84
2022/07/19 03:45:09;;;;;;;6.93;3.50;;;;;;;17.75;74.96;99881.84;5045425;28;20033;-84
2022/07/19 03:47:35;;;;;;;9.13;3.95;;;;;;;17.81;74.65;99897.06;5047542;28;20111;-83
2022/07/19 03:50:01;;;;;;;3.53;2.97;;;;;;;17.80;74.44;99897.25;5061036;28;20025;-84
2022/07/19 03:52:27;;;;;;;4.82;3.03;;;;;;;17.81;74.70;99894.38;5033204;28;20383;-84
2022/07/19 03:54:53;;;;;;;8.65;2.90;;;;;;;17.88;74.20;99891.72;5050697;28;20384;-84
2022/07/19 03:57:18;;;;;;;4.18;2.90;;;;;;;17.93;73.98;99877.72;5043126;28;20120;-84
2022/07/19 03:59:44;;;;;;;4.75;3.28;;;;;;;17.95;73.73;99870.31;5024763;28;20032;-84
2022/07/19 04:02:10;;;;;;;4.30;3.50;;;;;;;17.96;73.78;99885.34;5035463;28;20049;-84
2022/07/19 04:04:36;;;;;;;6.70;3.72;;;;;;;17.95;73.60;99884.50;5048881;28;20032;-83
2022/07/19 04:07:02;;;;;;;4.68;3.22;;;;;;;17.95;73.61;99881.81;5026333;28;20534;-84
2022/07/19 04:09:28;;;;;;;4.80;2.90;;;;;;;17.94;73.55;99874.00;5050749;28;20056;-83
2022/07/19 04:11:54;;;;;;;6.72;3.05;;;;;;;17.96;73.45;99866.63;5045545;28;20079;-84
2022/07/19 04:14:20;;;;;;;7.85;3.78;;;;;;;17.98;73.28;99876.06;5030075;28;20593;-84
2022/07/19 04:16:45;;;;;;;6.00;3.50;;;;;;;18.00;73.05;99869.69;5049483;28;20091;-84
2022/07/19 04:19:11;;;;;;;4.20;3.03;;;;;;;18.00;72.93;99869.69;5044841;28;20036;-77
2022/07/19 04:21:37;;;;;;;4.60;3.30;;;;;;;18.03;72.77;99872.75;5043305;28;20116;-77
2022/07/19 04:24:03;;;;;;;5.82;3.25;;;;;;;18.03;72.59;99878.13;5029658;28;20036;-77
2022/07/19 04:26:29;;;;;;;8.75;3.30;;;;;;;18.02;72.82;99881.81;5075551;28;20033;-76
2022/07/19 04:28:55;;;;;;;7.85;3.40;;;;;;;17.98;72.78;99892.09;5060337;28;20028;-83
2022/07/19 04:31:21;;;;;;;5.47;2.97;;;;;;;17.94;72.60;99898.06;5064761;28;20075;-84
2022/07/19 04:33:47;;;;;;;4.43;3.30;;;;;;;17.89;72.60;99897.88;5061261;28;20033;-84
2022/07/19 04:36:13;;;;;;;2.97;2.67;;;;;;;17.81;72.83;99898.91;5029332;28;20029;-84
2022/07/19 04:38:39;;;;;;;5.25;2.58;;;;;;;17.78;72.52;99893.97;5045663;28;20029;-84
2022/07/19 04:41:04;;;;;;;5.47;3.63;;;;;;;17.68;72.17;99887.19;5046271;28;20037;-84
2022/07/19 04:43:30;;;;;;;3.90;2.78;;;;;;;17.60;72.14;99879.34;5042100;28;20540;-83
2022/07/19 04:45:59;;;;;;;4.50;3.65;;;;;;;17.56;72.48;99876.31;5046202;28;20060;-84
2022/07/19 04:48:26;;;;;;;4.72;3.67;;;;;;;17.52;72.56;99860.88;5044337;28;20082;-84
2022/07/19 04:50:52;;;;;;;3.53;3.22;;;;;;;17.45;73.07;99845.69;5047019;28;20709;-84
2022/07/19 04:53:18;;;;;;;3.53;3.22;;;;;;;17.43;72.92;99846.88;5042841;28;20032;-84
2022/07/19 04:55:44;;;;;;;3.88;3.40;;;;;;;17.30;72.96;99831.66;5046471;28;20029;-84
2022/07/19 04:58:10;;;;;;;8.93;4.22;;;;;;;17.04;73.71;99826.06;5043756;28;20033;-84
2022/07/19 05:00:35;;;;;;;5.40;3.28;;;;;;;16.86;74.51;99822.13;5041327;28;20032;-76
2022/07/19 05:03:01;;;;;;;3.53;3.15;;;;;;;16.85;74.57;99817.00;5046816;28;20083;-76
2022/07/19 05:05:27;;;;;;;3.88;3.20;;;;;;;16.72;75.03;99812.44;5047392;28;20029;-84
2022/07/19 05:07:53;;;;;;;4.25;3.35;;;;;;;16.70;75.11;99825.16;5047289;28;20059;-84
2022/07/19 05:10:19;;;;;;;4.78;2.88;;;;;;;16.80;75.03;99822.91;5045163;28;20029;-84
2022/07/19 05:12:45;;;;;;;6.47;3.33;;;;;;;16.89;74.87;99830.75;5049152;28;20478;-84
2022/07/19 05:15:11;;;;;;;4.55;2.70;;;;;;;16.94;74.73;99829.13;5046320;28;20029;-84
2022/07/19 05:17:37;;;;;;;4.88;3.45;;;;;;;16.99;74.72;99839.22;5031053;28;20033;-84
2022/07/19 05:20:05;;;;;;;4.00;3.35;;;;;;;17.04;74.79;99835.94;5047107;28;20033;-84
2022/07/19 05:22:31;;;;;;;3.55;3.22;;;;;;;17.04;74.89;99831.38;5043235;28;20037;-84
2022/07/19 05:24:57;;;;;;;4.90;3.03;;;;;;;17.11;74.51;99832.28;5061373;28;20078;-84
2022/07/19 05:27:22;;;;;;;4.15;3.50;;;;;;;17.19;74.93;99833.94;5052466;28;20048;-84
2022/07/19 05:29:48;;;;;;;7.15;3.42;;;;;;;17.25;74.54;99816.25;5049911;28;20390;-83
2022/07/19 05:32:14;;;;;;;6.57;2.70;;;;;;;17.28;74.60;99825.72;5043537;28;20040;-84
2022/07/19 05:34:40;;;;;;;5.95;3.08;;;;;;;17.34;74.27;99822.22;5047743;28;20099;-83
2022/07/19 05:37:06;;;;;;;4.18;3.17;;;;;;;17.39;74.11;99826.97;5048321;28;20132;-84
2022/07/19 05:39:32;;;;;;;6.38;3.47;;;;;;;17.45;74.72;99837.66;5047377;28;20036;-84
2022/07/19 05:41:58;;;;;;;3.90;3.50;;;;;;;17.49;74.54;99843.41;5041140;28;20029;-84
2022/07/19 05:44:24;;;;;;;5.63;3.30;;;;;;;17.52;74.65;99845.66;5044644;28;20504;-84
2022/07/19 05:46:50;;;;;;;11.13;3.47;;;;;;;17.54;74.37;99851.63;5033075;28;20064;-84
2022/07/19 05:49:15;;;;;;;5.82;3.70;;;;;;;17.56;74.60;99854.09;5043069;28;20052;-84
2022/07/19 05:51:41;;;;;;;7.88;3.10;;;;;;;17.60;74.43;99858.81;5037914;28;20060;-84
2022/07/19 05:54:07;;;;;;;3.80;3.42;;;;;;;17.63;74.22;99857.56;5050160;28;20047;-84
2022/07/19 05:56:33;;;;;;;15.18;3.40;;;;;;;17.60;74.43;99850.81;5056280;28;20029;-85
2022/07/19 05:59:01;;;;;;;7.13;3.75;;;;;;;17.65;74.39;99857.38;5079882;28;20029;-77
2022/07/19 06:01:27;;;;;;;7.70;3.78;;;;;;;17.61;74.11;99862.31;5049242;28;20025;-77
2022/07/19 06:03:58;;;;;;;4.80;3.40;;;;;;;17.64;74.59;99861.91;5051160;28;20106;-84
2022/07/19 06:06:31;;;;;;;7.53;3.78;;;;;;;17.68;74.63;99864.97;5050405;28;20814;-84
2022/07/19 06:08:58;;;;;;;7.50;4.55;;;;;;;17.69;74.89;99872.81;5044390;28;20551;-84
2022/07/19 06:11:24;;;;;;;3.20;2.90;;;;;;;17.71;74.94;99875.28;5050338;28;20025;-84
2022/07/19 06:13:50;;;;;;;4.43;3.20;;;;;;;17.78;74.97;99876.09;5048587;28;20040;-84
2022/07/19 06:16:16;;;;;;;5.43;3.25;;;;;;;17.89;74.96;99874.63;5048636;28;20697;-84
2022/07/19 06:18:43;;;;;;;10.50;3.35;;;;;;;18.00;74.97;99862.47;5050666;28;20040;-84
2022/07/19 06:21:11;;;;;;;6.15;3.58;;;;;;;18.10;75.00;99864.75;5047870;28;20032;-84
2022/07/19 06:23:39;;;;;;;5.05;3.33;;;;;;;18.20;75.14;99867.81;5043682;28;20033;-77
2022/07/19 06:26:06;;;;;;;4.93;2.80;;;;;;;18.31;75.12;99868.22;5047966;28;20029;-76
2022/07/19 06:28:32;;;;;;;6.15;2.95;;;;;;;18.39;74.87;99857.28;5052166;28;20044;-83
2022/07/19 06:30:58;;;;;;;7.07;3.53;;;;;;;18.48;74.84;99852.53;5027245;28;20044;-84
2022/07/19 06:33:23;;;;;;;3.60;3.30;;;;;;;18.54;74.61;99854.34;5048875;28;20080;-84
2022/07/19 06:35:50;;;;;;;3.70;3.35;;;;;;;18.55;74.91;99847.97;5048279;28;20101;-84
2022/07/19 06:38:16;;;;;;;8.18;3.72;;;;;;;18.57;75.00;99843.22;5048501;28;20025;-85
2022/07/19 06:40:42;;;;;;;6.22;3.55;;;;;;;18.62;75.33;99847.94;5050755;28;20032;-84
2022/07/19 06:43:08;;;;;;;11.43;3.55;;;;;;;18.65;75.64;99839.47;5048818;28;20490;-84
2022/07/19 06:45:34;;;;;;;8.68;3.70;;;;;;;18.67;75.98;99834.75;5047640;28;20618;-84
2022/07/19 06:48:01;;;;;;;9.55;3.03;;;;;;;18.72;75.96;99826.06;5049771;28;20064;-84
2022/07/19 06:50:27;;;;;;;11.63;3.40;;;;;;;18.78;76.02;99827.06;5048530;28;20025;-84
2022/07/19 06:52:53;;;;;;;10.68;3.08;;;;;;;18.73;76.20;99830.38;5081722;28;20104;-84
2022/07/19 06:55:19;;;;;;;3.90;3.20;;;;;;;18.70;76.35;99822.78;5043229;28;20100;-84
2022/07/19 06:57:44;;;;;;;7.88;3.50;;;;;;;18.78;76.45;99825.22;5044546;28;20485;-84
2022/07/19 07:00:12;;;;;;;10.68;3.88;;;;;;;18.86;76.12;99816.09;5049506;28;20029;-84
2022/07/19 07:02:38;;;;;;;10.63;3.42;;;;;;;18.88;76.26;99818.56;5049760;28;20067;-84
2022/07/19 07:05:06;;;;;;;5.78;3.70;;;;;;;18.94;76.14;99815.84;5050296;28;20401;-84
2022/07/19 07:07:32;;;;;;;6.15;3.97;;;;;;;19.03;75.99;99815.59;5051613;28;20385;-84
2022/07/19 07:09:58;;;;;;;10.48;3.83;;;;;;;19.15;75.86;99818.41;5062557;28;20021;-84
2022/07/19 07:12:23;;;;;;;18.95;5.57;;;;;;;19.27;75.49;99824.72;5058486;28;20033;-84
2022/07/19 07:14:49;;;;;;;8.48;4.00;;;;;;;19.36;75.26;99819.94;5049918;28;20116;-84
2022/07/19 07:17:15;;;;;;;8.80;3.38;;;;;;;19.45;74.90;99817.78;5049818;28;20647;-84
2022/07/19 07:19:41;;;;;;;7.03;3.83;;;;;;;19.59;74.81;99823.84;5044570;28;20029;-84
2022/07/19 07:22:07;;;;;;;6.85;3.80;;;;;;;19.64;74.74;99834.75;5047712;28;20036;-84
2022/07/19 07:24:33;;;;;;;9.68;4.13;;;;;;;19.69;74.69;99826.03;5049087;28;20033;-84
2022/07/19 07:26:58;;;;;;;13.43;4.65;;;;;;;19.75;74.99;99821.66;5051807;28;20029;-87
2022/07/19 07:29:24;;;;;;;5.57;3.65;;;;;;;19.81;74.95;99818.91;5049944;28;20374;-86
2022/07/19 07:31:50;;;;;;;7.25;4.32;;;;;;;19.80;75.11;99822.63;5049011;28;20507;-86
2022/07/19 07:34:17;;;;;;;5.95;4.07;;;;;;;19.94;75.05;99822.50;5042948;28;20075;-86
2022/07/19 07:36:44;;;;;;;6.75;4.07;;;;;;;20.15;74.54;99813.22;5048774;28;20037;-86
2022/07/19 07:39:10;;;;;;;7.07;3.83;;;;;;;20.40;74.19;99816.88;5048754;28;20060;-86
2022/07/19 07:41:36;;;;;;;13.15;3.80;;;;;;;20.64;73.72;99822.34;5044023;28;20467;-87
2022/07/19 07:44:03;;;;;;;8.25;3.50;;;;;;;20.84;72.93;99816.69;5048444;28;20040;-87
2022/07/19 07:46:29;;;;;;;6.57;3.47;;;;;;;20.96;72.72;99816.75;5048428;28;20057;-86
2022/07/19 07:48:55;;;;;;;8.13;3.60;;;;;;;20.97;72.45;99814.91;5041098;28;20036;-86
2022/07/19 07:51:21;;;;;;;8.38;3.47;;;;;;;20.90;72.41;99820.34;5051329;28;20033;-86
2022/07/19 07:53:47;;;;;;;6.57;3.58;;;;;;;20.90;72.37;99815.78;5048237;28;20028;-86
2022/07/19 07:56:12;;;;;;;4.93;3.10;;;;;;;21.00;72.13;99820.66;5050007;28;20037;-86
2022/07/19 07:58:38;;;;;;;6.85;3.40;;;;;;;21.11;71.79;99831.63;5048455;28;20458;-86
2022/07/19 08:01:04;;;;;;;4.82;2.90;;;;;;;21.21;71.37;99831.09;5047369;28;20033;-86
2022/07/19 08:03:30;;;;;;;5.20;2.72;;;;;;;21.31;70.81;99840.22;5049839;28;20116;-86
2022/07/19 08:05:57;;;;;;;5.82;2.90;;;;;;;21.38;70.98;99833.91;5045690;28;20189;-86
2022/07/19 08:08:26;;;;;;;8.55;3.22;;;;;;;21.44;70.67;99832.97;5048235;28;20037;-83
2022/07/19 08:10:56;;;;;;;7.80;3.00;;;;;;;21.53;70.22;99834.28;5052670;28;20044;-84
2022/07/19 08:13:23;;;;;;;4.40;2.70;;;;;;;21.59;70.47;99831.72;5045173;28;20508;-84
2022/07/19 08:15:49;;;;;;;6.75;3.13;;;;;;;21.64;70.72;99843.44;5059667;28;20037;-83
2022/07/19 08:18:16;;;;;;;10.50;3.53;;;;;;;21.71;70.32;99827.16;5056809;28;20033;-84
2022/07/19 08:20:42;;;;;;;7.40;2.78;;;;;;;21.78;70.45;99822.53;5051967;28;20040;-84
2022/07/19 08:23:08;;;;;;;9.20;3.13;;;;;;;21.87;70.60;99836.41;5076070;28;20036;-84
2022/07/19 08:25:34;;;;;;;5.65;2.90;;;;;;;21.92;70.37;99838.41;5031865;28;20033;-84
2022/07/19 08:28:01;;;;;;;7.25;3.05;;;;;;;22.02;70.27;99835.13;5065323;28;20116;-84
2022/07/19 08:30:27;;;;;;;13.02;3.25;;;;;;;22.11;70.53;99847.16;5049503;28;20094;-84
2022/07/19 08:32:53;;;;;;;8.75;2.83;;;;;;;22.16;70.86;99839.22;5049136;28;20053;-83
2022/07/19 08:35:19;;;;;;;7.95;2.80;;;;;;;22.16;71.10;99841.06;5052086;28;20058;-83
2022/07/19 08:37:45;;;;;;;7.20;2.83;;;;;;;22.16;71.48;99849.97;5040442;28;20095;-83
2022/07/19 08:40:11;;;;;;;11.00;3.08;;;;;;;22.16;71.26;99852.66;5049180;28;20033;-84
2022/07/19 08:42:37;;;;;;;11.77;3.47;;;;;;;22.10;71.99;99839.31;5062277;28;20044;-83
2022/07/19 08:45:06;;;;;;;4.65;2.88;;;;;;;22.01;72.45;99823.53;5041482;28;20385;-83
2022/07/19 08:47:33;;;;;;;7.43;3.00;;;;;;;21.93;72.87;99837.38;5055389;28;20056;-83
2022/07/19 08:50:00;;;;;;;6.47;3.45;;;;;;;21.80;73.58;99839.22;5044567;28;20062;-83
2022/07/19 08:52:26;;;;;;;6.47;3.30;;;;;;;21.72;73.85;99862.94;5043532;28;20126;-83
2022/07/19 08:54:54;;;;;;;8.48;3.60;;;;;;;21.60;74.38;99877.19;5050242;28;20033;-83
2022/07/19 09:00:05;;;;;;;12.10;3.75;;;;;;;21.39;75.01;99857.06;5044875;28;20033;-83
2022/07/19 09:02:31;;;;;;;7.00;3.38;;;;;;;21.33;75.18;99861.50;5040575;28;20320;-83
2022/07/19 09:05:02;;;;;;;5.40;3.20;;;;;;;21.37;74.98;99862.69;5050492;28;20123;-83
2022/07/19 09:07:28;;;;;;;8.95;3.55;;;;;;;21.45;75.22;99877.66;5056911;28;20039;-84
2022/07/19 09:10:15;;;;;;;7.20;3.10;;;;;;;21.59;75.47;99896.25;5044237;28;20028;-83
2022/07/19 09:13:04;;;;;;;6.93;3.53;;;;;;;21.61;75.75;99921.84;5076239;28;20052;-84
2022/07/19 09:15:38;;;;;;;6.55;3.53;;;;;;;21.59;76.36;99937.41;5065149;28;20061;-83
2022/07/19 09:18:11;;;;;;;8.40;4.40;;;;;;;21.58;77.19;99986.84;5045242;28;20516;-84
2022/07/19 09:20:39;;;;;;;7.07;5.00;;;;;;;21.36;77.90;100041.13;5045371;28;20033;-84
2022/07/19 09:23:05;;;;;;;9.68;5.40;;;;;;;21.17;78.74;100077.94;5046378;28;20056;-83
2022/07/19 09:25:40;;;;;;;11.43;5.40;;;;;;;20.94;79.67;100091.00;5049743;28;20034;-83
2022/07/19 09:28:07;;;;;;;10.88;5.32;;;;;;;20.69;80.78;100067.66;5078645;28;20508;-83
2022/07/19 09:30:39;;;;;;;7.80;5.35;;;;;;;20.64;81.15;100069.38;5082320;28;20374;-83
2022/07/19 09:33:07;;;;;;;13.77;6.15;;;;;;;20.59;81.72;100056.63;5079300;28;20099;-83
2022/07/19 09:35:45;;;;;;;15.27;6.38;;;;;;;20.58;81.89;100030.78;5063629;28;20033;-83
2022/07/19 09:38:20;;;;;;;8.98;6.10;;;;;;;20.64;82.45;100029.91;5049802;28;20072;-83
2022/07/19 09:40:48;;;;;;;9.73;5.90;;;;;;;20.67;82.67;100017.91;5047289;28;20037;-83
2022/07/19 09:43:14;;;;;;;12.32;6.40;;;;;;;20.74;82.74;100007.09;5052557;28;20079;-83
2022/07/19 09:45:41;;;;;;;9.75;6.45;;;;;;;20.78;82.85;100000.25;5049786;28;20021;-83
2022/07/19 09:48:07;;;;;;;8.68;6.07;;;;;;;20.83;82.93;100006.56;5049286;28;20028;-83
2022/07/19 09:50:33;;;;;;;6.80;5.80;;;;;;;20.83;82.96;99995.03;5031860;28;20492;-83
2022/07/19 09:53:02;;;;;;;13.65;7.10;;;;;;;20.78;83.15;99984.97;5055424;28;20037;-82
2022/07/19 09:55:28;;;;;;;11.80;7.30;;;;;;;20.73;83.52;99941.84;5045524;28;20389;-82
2022/07/19 09:57:57;;;;;;;13.65;7.55;;;;;;;20.78;83.69;99925.03;5050203;28;21203;-83
2022/07/19 10:00:25;;;;;;;16.63;8.15;;;;;;;20.75;84.02;99925.50;5037891;28;20039;-83
2022/07/19 10:02:57;;;;;;;14.18;8.02;;;;;;;20.68;83.74;99971.22;5048887;28;20045;-83
2022/07/19 10:05:25;;;;;;;16.83;8.25;;;;;;;20.63;84.02;100022.91;5043809;28;20535;-82
2022/07/19 10:07:51;;;;;;;11.25;7.90;;;;;;;20.64;84.02;100027.22;5039841;28;20037;-82
2022/07/19 10:10:20;;;;;;;13.38;8.13;;;;;;;20.71;84.23;100027.16;5048384;28;20035;-82
2022/07/19 10:12:48;;;;;;;14.80;8.20;;;;;;;20.69;84.04;100045.34;5049367;28;20028;-82
2022/07/19 10:15:16;;;;;;;15.30;7.85;;;;;;;20.62;83.80;100017.75;5049604;28;20029;-82
2022/07/19 10:18:04;;;;;;;11.10;8.18;;;;;;;20.56;83.83;99982.69;5049119;28;20021;-82
2022/07/19 10:20:31;;;;;;;11.23;8.38;;;;;;;20.47;83.69;99969.78;5048387;28;20041;-82
2022/07/19 10:23:01;;;;;;;11.25;8.82;;;;;;;20.39;83.79;99965.50;5078474;28;20025;-82
2022/07/19 10:25:45;;;;;;;12.30;9.05;;;;;;;20.28;83.78;99950.97;5051221;28;20854;-82
2022/07/19 10:28:28;;;;;;;11.48;7.90;;;;;;;20.20;83.43;99947.53;5048591;28;20075;-82
2022/07/19 10:30:55;;;;;;;9.95;7.90;;;;;;;20.17;83.88;99931.06;5047661;28;20033;-81
2022/07/19 10:33:33;;;;;;;12.00;8.45;;;;;;;20.16;83.79;99937.47;5043394;28;20108;-82
2022/07/19 10:36:35;;;;;;;12.88;8.35;;;;;;;20.08;83.71;99934.00;5049247;28;20541;-77
2022/07/19 10:39:24;;;;;;;13.18;8.55;;;;;;;20.06;83.66;99917.34;5051285;28;20033;-82
2022/07/19 10:42:23;;;;;;;8.90;8.00;;;;;;;20.03;83.70;99919.63;5047885;28;20440;-82
2022/07/19 10:44:55;;;;;;;9.02;8.00;;;;;;;20.16;83.33;99950.88;5024595;28;20048;-82
2022/07/19 10:47:39;;;;;;;12.60;7.93;;;;;;;20.24;82.98;99957.81;5051092;28;20504;-82
2022/07/19 10:50:20;;;;;;;9.30;7.97;;;;;;;20.30;82.66;99963.13;5056563;28;20362;-82
2022/07/19 10:52:47;;;;;;;11.00;7.55;;;;;;;20.30;82.66;99978.41;5088473;28;20163;-82
2022/07/19 10:55:25;;;;;;;10.05;8.45;;;;;;;20.24;83.03;99985.50;5061582;28;20029;-82
2022/07/19 10:57:58;;;;;;;9.60;8.23;;;;;;;20.18;83.71;99999.75;5048214;28;20048;-82
2022/07/19 11:00:29;;;;;;;13.10;8.02;;;;;;;20.18;83.90;100011.31;5051937;28;20060;-82
2022/07/19 11:03:21;;;;;;;11.25;8.88;;;;;;;20.11;84.31;100007.06;5049187;28;20047;-82
2022/07/19 11:05:55;;;;;;;9.10;8.13;;;;;;;20.11;84.94;99989.09;5052466;28;20025;-82
2022/07/19 11:08:33;;;;;;;14.80;8.85;;;;;;;20.15;84.94;99984.09;5047927;28;20037;-82
2022/07/19 11:11:08;;;;;;;17.02;9.07;;;;;;;20.13;85.52;99964.75;5052950;28;20066;-82
2022/07/19 11:13:34;;;;;;;16.07;8.73;;;;;;;20.19;86.17;99919.03;5049832;28;20029;-83
2022/07/19 11:16:02;;;;;;;15.02;8.45;;;;;;;20.15;86.44;99915.19;5050430;28;20469;-83
2022/07/19 11:18:32;;;;;;;11.13;7.63;;;;;;;20.20;86.47;99912.66;5056399;28;20440;-83
2022/07/19 11:21:00;;;;;;;11.20;7.65;;;;;;;20.29;85.95;99859.50;5047529;28;20048;-83
2022/07/19 11:23:35;;;;;;;11.88;8.52;;;;;;;20.21;85.46;99811.50;5053493;28;20033;-83
2022/07/19 11:26:17;;;;;;;12.70;8.93;;;;;;;20.10;86.47;99774.72;5033565;28;20037;-83
2022/07/19 11:28:44;;;;;;;12.98;9.95;;;;;;;19.94;87.60;99747.41;5059327;28;20057;-83
2022/07/19 11:31:22;;;;;;;14.45;9.20;;;;;;;19.84;88.87;99739.88;5048709;28;20519;-83
2022/07/19 11:33:50;;;;;;;17.30;9.55;;;;;;;19.81;89.97;99721.56;5045346;28;20478;-83